Franklin, KY (42135)

1:37 AM CST on March 05, 2015 (GMT -0600)
CnTAstro | Change Station
CLOSE
Current Station
Personal Weather Station
Location: Portland, TN
Elevation: 814 ft
Nearby Weather Stations

Elev 814 ft 36.61 °N, 86.45 °W | Updated 6 minutes ago

Snow
Snow
22.2 °F
Feels Like 22 °F
N
0.0
Wind Variable Wind from North
Gusts 0.0 mph

Today
High -- | Low -- °F
--% Chance of Precip.
Yesterday
High -- | Low -- °F
Precip. -- in
6:11 AM 5:44 PM
Full, 100% visible
Pressure 30.21 in
Visibility 1.0 miles
Clouds
Windchill 22 °F
Dew Point 20 °F
Humidity 93%
Rainfall in
Snow Depth Not available.
UV Not available.
Pollen .70 out of 12
Air Quality Not available.
Flu Activity Not available.
SPECI KBWG 050730Z AUTO 35009G15KT 1SM -SN BR VV017 M05/M07 A3021 RMK AO2 P0001 T10501072

More Conditions Fewer Conditions

Pressure 30.21 in
Visibility 1.0 miles
Clouds
Windchill 22 °F
Dew Point 20 °F
Humidity 93%
Rainfall in
Snow Depth Not available.
UV Not available.
Pollen .70 out of 12
Air Quality Not available.
Flu Activity Not available.
SPECI KBWG 050730Z AUTO 35009G15KT 1SM -SN BR VV017 M05/M07 A3021 RMK AO2 P0001 T10501072

More Conditions Fewer Conditions

10-Day Weather Forecast

Almanac

Astronomy

Mar. 05, 2015 Rise Set
Actual Time
Civil Twilight
Nautical Twilight
Astronomical Twilight
Moon
Length of Visible Light
Length of Day
Tomorrow will be .
, % of the Moon is Illuminated

Today's Extremes

State Highs State Lows

Community

WunderPhotos

Upload Photos

1,802,689 photos uploaded!

WunderBlogs® & News

Nearby

Air Quality

  Air Quality AQ Index Pollutant
Not available.

Snow Depth

Station Depth Elevation

Earthquake Activity

City Distance Mag. Time & Date
Minimum magnitude displayed is 2.5.

Coastal Water Temperatures

Place Temperature

Nearby Weather Stations

Winter Storm Warning
Statement as of 2:54 PM CST on March 04, 2015

... Winter Storm Warning remains in effect until 1 PM EST /noon
CST/ Thursday...

A Winter Storm Warning remains in effect until 1 PM EST /noon
CST/ Thursday.

* Timing: rain will transition to sleet this afternoon and
evening. This sleet then will then transition to snow... becoming
heavy by mid evening and continuing into tonight. Snow will end
early Thursday morning.

* Accumulations: 4 to 10 inches of snow across central and north
central Kentucky. Localized higher amounts possible... especially
from the northern Blue Grass to the Nolin and Rough River Lake
areas.

* Main impact: plan on snow covered roads and dangerous travel
conditions. Snow rates may be intense... resulting in rapid
accumulations and low visibilities.

* Other impacts: north winds gusting up to 20 mph tonight. This
combined with the weight of the snow could result in scattered
power outages and downed tree limbs.

Precautionary/preparedness actions...

Travel will be treacherous with some roads nearly impassable.
Have an emergency kit of blankets... food... water and flashlights
if you must travel.